Time,TemperatureF,DewpointF,PressureIn,WindDirection,WindDirectionDegrees,WindSpeedMPH,WindSpeedGustMPH,Humidity,HourlyPrecipIn,Conditions,Clouds,dailyrainin,SoftwareType,DateUTC
2013-03-19 00:00:00,25.2,20.0,30.13,West,266,0.0,2.0,79,0.00,,,0.00,weatherlink.com 1.10,2013-03-19 04:00:00,
2013-03-19 00:15:00,25.0,20.0,30.11,SW,236,0.0,2.0,81,0.00,,,0.00,weatherlink.com 1.10,2013-03-19 04:15:00,
2013-03-19 00:30:00,25.4,19.0,30.10,SSE,167,2.0,5.0,78,0.00,,,0.00,weatherlink.com 1.10,2013-03-19 04:30:00,
2013-03-19 00:45:00,25.8,20.0,30.10,North,3,5.0,5.0,77,0.00,,,0.00,weatherlink.com 1.10,2013-03-19 04:45:00,
2013-03-19 01:00:00,26.1,20.0,30.07,ESE,122,1.0,4.0,77,0.00,,,0.00,weatherlink.com 1.10,2013-03-19 05:00:00,
2013-03-19 01:15:00,26.1,20.0,30.07,East,82,2.0,7.0,77,0.00,,,0.00,weatherlink.com 1.10,2013-03-19 05:15:00,
2013-03-19 01:30:00,26.4,20.0,30.05,SW,228,3.0,11.0,76,0.00,,,0.00,weatherlink.com 1.10,2013-03-19 05:30:00,
2013-03-19 01:45:00,26.0,19.0,30.05,East,98,2.0,10.0,76,0.00,,,0.00,weatherlink.com 1.10,2013-03-19 05:45:00,
2013-03-19 02:00:00,25.6,20.0,30.04,SSE,155,1.0,8.0,79,0.00,,,0.00,weatherlink.com 1.10,2013-03-19 06:00:00,
2013-03-19 02:15:00,25.3,20.0,30.04,WSW,240,3.0,9.0,80,0.00,,,0.00,weatherlink.com 1.10,2013-03-19 06:15:00,
2013-03-19 02:31:00,24.9,20.0,30.02,NE,48,4.0,8.0,82,0.00,,,0.00,weatherlink.com 1.10,2013-03-19 06:31:00,
2013-03-19 02:46:00,25.0,20.0,30.01,ENE,74,1.0,6.0,81,0.00,,,0.00,weatherlink.com 1.10,2013-03-19 06:46:00,
2013-03-19 03:01:00,24.8,20.0,30.00,North,356,4.0,9.0,81,0.00,,,0.00,weatherlink.com 1.10,2013-03-19 07:01:00,
2013-03-19 03:16:00,24.2,20.0,29.99,NE,53,4.0,8.0,84,0.00,,,0.00,weatherlink.com 1.10,2013-03-19 07:16:00,
2013-03-19 03:46:00,24.2,21.0,29.97,NW,321,0.0,6.0,86,0.00,,,0.00,weatherlink.com 1.10,2013-03-19 07:46:00,
2013-03-19 04:31:00,23.4,20.0,29.95,NE,51,1.0,5.0,88,0.00,,,0.00,weatherlink.com 1.10,2013-03-19 08:31:00,
2013-03-19 04:46:00,23.1,20.0,29.93,NNW,333,2.0,5.0,89,0.00,,,0.00,weatherlink.com 1.10,2013-03-19 08:46:00,
2013-03-19 05:01:00,23.2,21.0,29.95,WNW,297,4.0,6.0,90,0.00,,,0.00,weatherlink.com 1.10,2013-03-19 09:01:00,
2013-03-19 05:16:00,23.6,21.0,29.94,ESE,108,0.0,8.0,89,0.00,,,0.00,weatherlink.com 1.10,2013-03-19 09:16:00,
2013-03-19 05:31:00,23.5,21.0,29.94,West,266,2.0,4.0,88,0.00,,,0.00,weatherlink.com 1.10,2013-03-19 09:31:00,
2013-03-19 05:46:00,23.8,20.0,29.94,ESE,115,0.0,9.0,86,0.00,,,0.00,weatherlink.com 1.10,2013-03-19 09:46:00,
2013-03-19 06:01:00,24.2,20.0,29.93,WSW,243,0.0,8.0,85,0.00,,,0.00,weatherlink.com 1.10,2013-03-19 10:01:00,
2013-03-19 06:16:00,24.8,20.0,29.92,NE,50,2.0,8.0,82,0.00,,,0.00,weatherlink.com 1.10,2013-03-19 10:16:00,
2013-03-19 06:31:00,24.9,20.0,29.91,ENE,73,1.0,12.0,82,0.00,,,0.00,weatherlink.com 1.10,2013-03-19 10:31:00,
2013-03-19 06:46:00,25.2,20.0,29.90,SW,236,4.0,15.0,81,0.00,,,0.00,weatherlink.com 1.10,2013-03-19 10:46:00,
2013-03-19 07:01:00,24.9,20.0,29.90,WNW,295,2.0,8.0,83,0.00,,,0.00,weatherlink.com 1.10,2013-03-19 11:01:00,
2013-03-19 07:16:00,25.2,20.0,29.90,WNW,290,6.0,9.0,82,0.00,,,0.00,weatherlink.com 1.10,2013-03-19 11:16:00,
2013-03-19 07:31:00,25.7,20.0,29.89,ENE,75,2.0,9.0,80,0.00,,,0.00,weatherlink.com 1.10,2013-03-19 11:31:00,
2013-03-19 07:46:00,26.1,20.0,29.88,NNW,333,3.0,8.0,79,0.00,,,0.00,weatherlink.com 1.10,2013-03-19 11:46:00,
2013-03-19 08:01:00,26.1,20.0,29.87,NW,311,3.0,9.0,79,0.00,,,0.00,weatherlink.com 1.10,2013-03-19 12:01:00,
2013-03-19 08:16:00,26.2,20.0,29.87,NW,324,2.0,12.0,78,0.00,,,0.00,weatherlink.com 1.10,2013-03-19 12:16:00,
2013-03-19 08:31:00,26.4,20.0,29.88,West,278,1.0,8.0,78,0.00,,,0.00,weatherlink.com 1.10,2013-03-19 12:31:00,
2013-03-19 08:46:00,26.5,21.0,29.87,West,281,4.0,8.0,79,0.00,,,0.00,weatherlink.com 1.10,2013-03-19 12:46:00,
2013-03-19 09:17:00,26.7,21.0,29.86,West,271,0.0,9.0,78,0.00,,,0.00,weatherlink.com 1.10,2013-03-19 13:17:00,
2013-03-19 09:32:00,26.7,22.0,29.85,West,262,7.0,8.0,81,0.00,,,0.00,weatherlink.com 1.10,2013-03-19 13:32:00,
2013-03-19 09:47:00,26.4,22.0,29.85,West,280,4.0,15.0,83,0.00,,,0.00,weatherlink.com 1.10,2013-03-19 13:47:00,
2013-03-19 10:02:00,26.6,22.0,29.85,WNW,302,1.0,8.0,83,0.00,,,0.00,weatherlink.com 1.10,2013-03-19 14:02:00,
2013-03-19 10:17:00,26.7,22.0,29.85,WSW,246,6.0,6.0,83,0.00,,,0.00,weatherlink.com 1.10,2013-03-19 14:17:00,
2013-03-19 10:32:00,26.6,23.0,29.84,SSW,210,3.0,7.0,85,0.00,,,0.00,weatherlink.com 1.10,2013-03-19 14:32:00,
2013-03-19 10:47:00,26.2,23.0,29.84,WNW,282,0.0,4.0,87,0.00,,,0.00,weatherlink.com 1.10,2013-03-19 14:47:00,
2013-03-19 11:02:00,26.8,23.0,29.84,South,186,1.0,8.0,84,0.00,,,0.00,weatherlink.com 1.10,2013-03-19 15:02:00,
2013-03-19 11:17:00,26.9,23.0,29.85,WNW,282,0.0,7.0,84,0.00,,,0.00,weatherlink.com 1.10,2013-03-19 15:17:00,
2013-03-19 11:32:00,27.3,23.0,29.85,NNW,337,1.0,4.0,83,0.00,,,0.00,weatherlink.com 1.10,2013-03-19 15:32:00,
2013-03-19 11:47:00,27.6,22.0,29.83,West,267,4.0,6.0,80,0.00,,,0.00,weatherlink.com 1.10,2013-03-19 15:47:00,
2013-03-19 12:17:00,27.6,22.0,29.82,West,263,2.0,10.0,79,0.00,,,0.00,weatherlink.com 1.10,2013-03-19 16:17:00,
2013-03-19 12:34:00,27.4,23.0,29.82,West,274,3.0,5.0,82,0.00,,,0.00,weatherlink.com 1.10,2013-03-19 16:34:00,
2013-03-19 12:47:00,26.9,23.0,29.81,West,281,3.0,6.0,86,0.00,,,0.00,weatherlink.com 1.10,2013-03-19 16:47:00,
2013-03-19 13:02:00,26.6,24.0,29.79,WNW,291,2.0,5.0,88,0.00,,,0.00,weatherlink.com 1.10,2013-03-19 17:02:00,
2013-03-19 13:17:00,26.7,24.0,29.79,NE,39,1.0,5.0,89,0.00,,,0.00,weatherlink.com 1.10,2013-03-19 17:17:00,
2013-03-19 13:32:00,27.4,23.0,29.78,NW,326,2.0,4.0,84,0.00,,,0.00,weatherlink.com 1.10,2013-03-19 17:32:00,
2013-03-19 13:47:00,27.6,23.0,29.77,WNW,291,2.0,4.0,82,0.00,,,0.00,weatherlink.com 1.10,2013-03-19 17:47:00,
2013-03-19 14:02:00,27.5,23.0,29.74,WSW,242,8.0,9.0,82,0.00,,,0.00,weatherlink.com 1.10,2013-03-19 18:02:00,
2013-03-19 14:17:00,27.1,23.0,29.75,SSW,205,2.0,11.0,84,0.00,,,0.00,weatherlink.com 1.10,2013-03-19 18:17:00,
2013-03-19 14:34:00,26.7,23.0,29.76,WSW,255,6.0,6.0,86,0.00,,,0.00,weatherlink.com 1.10,2013-03-19 18:34:00,
2013-03-19 15:02:00,26.9,23.0,29.72,East,91,0.0,7.0,86,0.00,,,0.00,weatherlink.com 1.10,2013-03-19 19:02:00,
2013-03-19 15:17:00,27.9,22.0,29.72,ESE,113,1.0,7.0,78,0.00,,,0.00,weatherlink.com 1.10,2013-03-19 19:17:00,
2013-03-19 15:32:00,28.3,22.0,29.73,WSW,252,0.0,6.0,77,0.00,,,0.00,weatherlink.com 1.10,2013-03-19 19:32:00,
2013-03-19 15:47:00,28.2,22.0,29.72,NW,310,1.0,11.0,77,0.00,,,0.00,weatherlink.com 1.10,2013-03-19 19:47:00,
2013-03-19 16:02:00,28.1,21.0,29.71,SSW,208,1.0,6.0,76,0.00,,,0.00,weatherlink.com 1.10,2013-03-19 20:02:00,
2013-03-19 16:17:00,28.5,22.0,29.72,WNW,285,1.0,5.0,76,0.00,,,0.00,weatherlink.com 1.10,2013-03-19 20:17:00,
2013-03-19 16:32:00,28.7,21.0,29.71,WSW,243,1.0,3.0,74,0.00,,,0.00,weatherlink.com 1.10,2013-03-19 20:32:00,
2013-03-19 16:47:00,28.8,22.0,29.72,South,187,0.0,6.0,74,0.00,,,0.00,weatherlink.com 1.10,2013-03-19 20:47:00,
2013-03-19 17:02:00,28.8,21.0,29.72,NW,310,1.0,7.0,73,0.00,,,0.00,weatherlink.com 1.10,2013-03-19 21:02:00,
2013-03-19 17:17:00,28.3,22.0,29.73,West,273,0.0,3.0,78,0.00,,,0.00,weatherlink.com 1.10,2013-03-19 21:17:00,
2013-03-19 17:32:00,28.0,22.0,29.73,WSW,246,1.0,3.0,78,0.00,,,0.00,weatherlink.com 1.10,2013-03-19 21:32:00,
2013-03-19 17:47:00,27.3,22.0,29.73,ESE,105,1.0,5.0,81,0.00,,,0.00,weatherlink.com 1.10,2013-03-19 21:47:00,
2013-03-19 18:02:00,26.6,23.0,29.73,North,4,0.0,4.0,85,0.00,,,0.00,weatherlink.com 1.10,2013-03-19 22:02:00,
2013-03-19 18:17:00,26.6,23.0,29.73,SW,228,0.0,3.0,85,0.00,,,0.00,weatherlink.com 1.10,2013-03-19 22:17:00,
2013-03-19 18:32:00,26.4,23.0,29.73,SSE,162,0.0,1.0,86,0.00,,,0.00,weatherlink.com 1.10,2013-03-19 22:32:00,
2013-03-19 18:47:00,26.2,23.0,29.72,NNW,330,0.0,2.0,87,0.00,,,0.00,weatherlink.com 1.10,2013-03-19 22:47:00,
2013-03-19 19:02:00,26.2,22.0,29.72,West,271,1.0,3.0,84,0.00,,,0.00,weatherlink.com 1.10,2013-03-19 23:02:00,
2013-03-19 19:17:00,26.5,21.0,29.73,ENE,69,0.0,6.0,80,0.00,,,0.00,weatherlink.com 1.10,2013-03-19 23:17:00,
2013-03-19 19:32:00,26.6,21.0,29.73,WNW,295,1.0,4.0,79,0.00,,,0.00,weatherlink.com 1.10,2013-03-19 23:32:00,
2013-03-19 19:47:00,26.5,21.0,29.73,SE,129,3.0,7.0,80,0.00,,,0.00,weatherlink.com 1.10,2013-03-19 23:47:00,
2013-03-19 20:02:00,26.2,21.0,29.73,West,259,0.0,4.0,81,0.00,,,0.00,weatherlink.com 1.10,2013-03-20 00:02:00,
2013-03-19 20:17:00,26.0,21.0,29.74,WSW,243,1.0,4.0,81,0.00,,,0.00,weatherlink.com 1.10,2013-03-20 00:17:00,
2013-03-19 20:33:00,25.8,21.0,29.74,NW,304,0.0,2.0,83,0.00,,,0.00,weatherlink.com 1.10,2013-03-20 00:33:00,
2013-03-19 20:47:00,25.4,21.0,29.74,West,269,2.0,5.0,83,0.00,,,0.00,weatherlink.com 1.10,2013-03-20 00:47:00,
2013-03-19 21:18:00,25.0,21.0,29.74,SW,214,0.0,5.0,84,0.00,,,0.00,weatherlink.com 1.10,2013-03-20 01:18:00,
2013-03-19 21:33:00,24.8,21.0,29.73,NE,41,1.0,6.0,85,0.00,,,0.00,weatherlink.com 1.10,2013-03-20 01:33:00,
2013-03-19 21:48:00,24.7,21.0,29.74,WNW,303,0.0,3.0,86,0.00,,,0.00,weatherlink.com 1.10,2013-03-20 01:48:00,
2013-03-19 22:03:00,24.5,21.0,29.74,WNW,285,0.0,2.0,87,0.00,,,0.00,weatherlink.com 1.10,2013-03-20 02:03:00,
2013-03-19 22:18:00,24.2,21.0,29.74,WSW,248,0.0,3.0,88,0.00,,,0.00,weatherlink.com 1.10,2013-03-20 02:18:00,
2013-03-19 22:33:00,23.9,21.0,29.74,SW,233,0.0,1.0,90,0.00,,,0.00,weatherlink.com 1.10,2013-03-20 02:33:00,
2013-03-19 22:48:00,23.7,21.0,29.74,SSE,148,0.0,2.0,90,0.00,,,0.00,weatherlink.com 1.10,2013-03-20 02:48:00,
2013-03-19 23:03:00,23.8,22.0,29.74,WSW,249,1.0,2.0,91,0.00,,,0.00,weatherlink.com 1.10,2013-03-20 03:03:00,
2013-03-19 23:18:00,24.0,22.0,29.73,West,259,0.0,1.0,91,0.00,,,0.00,weatherlink.com 1.10,2013-03-20 03:18:00,
2013-03-19 23:48:00,24.0,22.0,29.72,SE,131,0.0,2.0,91,0.00,,,0.00,weatherlink.com 1.10,2013-03-20 03:48:00,